createdAt,value
2019-01-24T19:42:13.015Z,19.04
2019-01-24T19:44:44.917Z,19.04
2019-01-24T19:47:16.852Z,19.51
2019-01-24T19:49:48.630Z,20.59
2019-01-24T19:52:20.358Z,21.20
2019-01-24T19:54:52.243Z,21.83
2019-01-24T19:57:24.035Z,22.27
2019-01-24T20:09:40.827Z,7.67
2019-01-24T20:12:12.827Z,7.67
2019-01-24T20:14:44.631Z,4.90
2019-01-24T20:17:16.664Z,3.42
2019-01-24T20:19:48.373Z,1.94
2019-01-24T20:22:21.536Z,0.88
2019-01-24T20:24:53.252Z,0.23
2019-01-24T20:27:24.969Z,-0.69
2019-01-24T20:29:56.684Z,-1.37
2019-01-24T20:32:28.358Z,-1.55
2019-01-24T20:34:59.993Z,-1.90
2019-01-24T20:37:31.757Z,-2.14
2019-01-24T20:40:03.471Z,-2.23
2019-01-24T20:42:35.253Z,-2.31
2019-01-24T20:45:07.001Z,-2.34
2019-01-24T20:47:38.707Z,-2.31
2019-01-24T20:50:11.969Z,-2.60
2019-01-24T20:52:44.825Z,-2.63
2019-01-24T20:55:16.748Z,-2.75
2019-01-24T20:57:48.488Z,-2.92
2019-01-24T21:00:21.431Z,-2.83
2019-01-24T21:02:53.428Z,-3.02
2019-01-24T21:05:25.118Z,-3.08
2019-01-24T21:07:56.777Z,-3.05
2019-01-24T21:10:28.531Z,-3.04
2019-01-24T21:13:01.216Z,-3.17
2019-01-24T21:15:32.917Z,-3.21
2019-01-24T21:18:04.574Z,-3.20
2019-01-24T21:20:36.461Z,-3.34
2019-01-24T21:23:08.251Z,-3.49
2019-01-24T21:25:39.945Z,-3.63
2019-01-24T21:28:11.773Z,-3.69
2019-01-24T21:30:43.822Z,-3.83
2019-01-24T21:33:15.491Z,-3.99
2019-01-24T21:35:47.152Z,-4.05
2019-01-24T21:38:18.807Z,-4.09
2019-01-24T21:40:50.464Z,-4.17
2019-01-24T21:43:22.113Z,-4.16
2019-01-24T21:45:53.788Z,-4.26
2019-01-24T21:48:25.438Z,-4.44
2019-01-24T21:50:57.129Z,-4.45
2019-01-24T22:05:30.808Z,-4.69
2019-01-24T22:12:41.283Z,-4.67
2019-01-24T22:44:00.680Z,-4.06
2019-01-24T22:49:57.043Z,-4.04
2019-01-24T22:52:28.776Z,-3.95
2019-01-24T22:58:36.106Z,-4.07
2019-01-24T23:08:09.448Z,-4.05
2019-01-24T23:10:41.308Z,-4.11
2019-01-24T23:13:13.109Z,-4.21
2019-01-24T23:15:44.823Z,-4.16
2019-01-24T23:18:19.005Z,-4.18
2019-01-24T23:20:50.735Z,-4.09
2019-01-24T23:23:23.873Z,-4.16
2019-01-24T23:25:55.517Z,-4.14
2019-01-24T23:28:27.199Z,-4.14
2019-01-24T23:30:58.866Z,-4.08
2019-01-24T23:33:49.059Z,-4.08
2019-01-24T23:36:21.168Z,-4.06
2019-01-24T23:40:12.438Z,-4.09
2019-01-24T23:46:22.357Z,-4.01
